Latest Coastal Weather Observations for Cape Jaffa

IDS60701

Issued at 9:55 am CST Saturday 2 August 2014 (issued every 10 minutes, with the page automatically refreshed every 10 minutes)

About coastal observations | Map of coastal stations | Coastal observations for SA | Marine services | Other Formats
Station Details ID: 026095 Name: THE LIMESTONE Lat: -36.97 Lon: 139.72 Height: 17.0 m
Data from the previous 72 hours. | See also: Recent months at Cape Jaffa
Date/Time
CST
Temp

°C
Wind Pressure Rain
since 9am
mm
Weather Cloud Vis
km
Sea
Height
m
Swell
Dir
 
Speed
knots
Gust
knots
hPa Trend Height
m
Period
s
Dir
02/09:30am 9.1 NNE 6 8 1031.7 - 0.0 - - - - - - -
02/09:00am 8.0 NE 5 6 1031.3 - 1.0 - - - - - - -
02/08:30am 6.1 E 6 7 1031.1 - 1.0 - - - - - - -
02/08:00am 4.6 E 6 9 1030.9 - 1.0 - - - - - - -
02/07:30am 3.3 ENE 6 7 1030.4 - 1.0 - - - - - - -
02/07:00am 3.3 ENE 6 6 1030.1 - 1.0 - - - - - - -
02/06:30am 4.2 ENE 5 6 1029.7 - 1.0 - - - - - - -
02/06:00am 5.3 ENE 3 6 1029.4 - 1.0 - - - - - - -
02/05:30am 4.0 ENE 2 5 1029.0 - 1.0 - - - - - - -
02/05:00am 3.5 ENE 3 5 1028.7 - 1.0 - - - - - - -
02/04:30am 3.7 ESE 6 8 1028.4 - 1.0 - - - - - - -
02/04:00am 4.8 NE 4 5 1028.3 - 1.0 - - - - - - -
02/03:30am 6.7 SE 3 4 1028.1 - 1.0 - - - - - - -
02/03:00am 6.3 SE 7 8 1027.9 - 1.0 - - - - - - -
02/02:30am 7.0 SSE 7 9 1027.8 - 1.0 - - - - - - -
02/02:00am 6.3 E 4 5 1027.8 - 1.0 - - - - - - -
02/01:30am 6.3 ESE 4 6 1027.7 - 1.0 - - - - - - -
02/01:00am 7.2 SSE 6 9 1027.6 - 1.0 - - - - - - -
02/12:30am 7.6 SSE 7 8 1027.6 - 1.0 - - - - - - -
02/12:00am 7.8 SSW 6 8 1027.3 - 1.0 - - - - - - -
 
Date/Time
CST
Temp

°C
Wind Pressure Rain
since 9am
mm
Weather Cloud Vis
km
Sea
Height
m
Swell
Dir
 
Speed
knots
Gust
knots
hPa Trend Height
m
Period
s
Dir
01/11:30pm 8.4 S 12 18 1027.1 - 1.0 - - - - - - -
01/11:00pm 9.5 SSW 12 15 1026.8 - 1.0 - - - - - - -
01/10:30pm 8.6 SW 8 11 1026.7 - 1.0 - - - - - - -
01/10:00pm 8.8 SW 13 16 1026.6 - 1.0 - - - - - - -
01/09:30pm 9.0 SSW 15 18 1026.2 - 1.0 - - - - - - -
01/09:00pm 9.4 SSW 13 17 1025.5 - 1.0 - - - - - - -
01/08:30pm 9.7 SW 14 19 1025.1 - 1.0 - - - - - - -
01/08:00pm 8.8 S 14 19 1024.8 - 1.0 - - - - - - -
01/07:30pm 9.1 SSW 13 17 1024.3 - 1.0 - - - - - - -
01/07:00pm 7.0 SSW 6 9 1023.8 - 1.0 - - - - - - -
01/06:30pm 6.4 S 8 10 1023.4 - 1.0 - - - - - - -
01/06:17pm 7.5 S 19 24 1023.4 - 1.0 - - - - - - -
01/06:07pm 8.9 SW 30 36 1022.4 - 0.8 - - - - - - -
01/06:05pm 9.6 SW 18 34 1022.7 - 0.8 - - - - - - -
01/06:00pm 9.4 SW 17 22 1022.5 - 0.8 - - - - - - -
01/05:30pm 9.3 SSW 19 26 1021.7 - 0.8 - - - - - - -
01/05:00pm 8.8 SSW 20 28 1021.2 - 0.8 - - - - - - -
01/04:30pm 8.8 SW 15 26 1020.7 - 0.8 - - - - - - -
01/04:23pm 7.8 SW 22 32 1020.7 - 0.8 - - - - - - -
01/04:00pm 10.5 SW 23 32 1019.7 - 0.6 - - - - - - -
01/03:30pm 10.5 SSW 23 30 1019.2 - 0.6 - - - - - - -
01/03:00pm 10.8 SW 25 34 1018.6 - 0.6 Recent precip. - - - - - -
01/02:32pm 10.1 SW 20 31 1018.1 - 0.6 - - - - - - -
01/02:30pm 10.5 SW 20 29 1018.1 - 0.6 - - - - - - -
01/02:18pm 11.3 SW 22 36 1017.6 - 0.4 - - - - - - -
01/02:00pm 10.9 SSW 23 29 1017.4 - 0.4 - - - - - - -
01/01:50pm 11.1 SSW 23 33 1017.3 - 0.4 - - - - - - -
01/01:30pm 11.1 SSW 25 32 1016.7 - 0.4 - - - - - - -
01/01:00pm 10.4 SSW 21 28 1016.6 - 0.4 - - - - - - -
01/12:30pm 7.7 SSW 20 34 1016.6 - 0.4 - - - - - - -
01/12:14pm 9.5 SW 21 32 1015.9 - 0.2 - - - - - - -
01/12:00pm 9.7 SSW 22 27 1015.8 - 0.2 - - - - - - -
01/11:54am 9.1 SSW 22 26 1015.8 - 0.2 - - - - - - -
01/11:31am 8.8 SSW 33 43 1015.2 - 0.2 - - - - - - -
01/11:30am 9.0 SSW 34 43 1015.1 - 0.2 - - - - - - -
01/11:22am 9.5 SW 36 43 1014.4 - 0.2 - - - - - - -
01/11:00am 10.5 SW 24 36 1014.0 - 0.2 - - - - - - -
01/10:30am 9.5 SW 23 32 1013.5 - 0.2 - - - - - - -
01/10:08am 8.1 SSW 29 40 1013.0 - 0.2 - - - - - - -
01/10:00am 7.9 SSW 30 40 1012.5 - 0.2 - - - - - - -
01/09:47am 7.6 SSW 26 37 1012.5 - 0.2 - - - - - - -
01/09:41am 6.7 SSW 30 37 1012.3 - 0.2 - - - - - - -
01/09:35am 7.4 SSW 41 51 1011.5 - 0.0 - - - - - - -
01/09:33am 9.8 SW 25 50 1011.7 - 0.0 - - - - - - -
01/09:30am 9.8 SW 24 34 1011.7 - 0.0 - - - - - - -
01/09:03am 8.1 SW 26 37 1011.1 - 0.0 - - - - - - -
01/09:00am 7.9 SW 28 37 1011.0 - 12.8 Recent precip. - - - - - -
01/08:42am 7.5 SW 33 50 1009.6 - 12.4 - - - - - - -
01/08:30am 9.5 SW 27 38 1009.1 - 12.2 - - - - - - -
01/08:00am 8.6 SW 23 36 1008.7 - 12.2 - - - - - - -
01/07:30am 8.7 SW 29 40 1007.6 - 12.0 - - - - - - -
01/07:12am 8.3 WSW 24 34 1006.9 - 12.0 - - - - - - -
01/07:00am 7.6 SW 26 36 1006.9 - 12.0 - - - - - - -
01/06:30am 8.3 WSW 29 40 1005.7 - 11.8 - - - - - - -
01/06:07am 7.5 WSW 26 41 1005.4 - 11.4 - - - - - - -
01/06:00am 8.3 WSW 29 39 1005.0 - 11.4 Recent precip. - - - - - -
01/05:32am 8.7 WSW 31 52 1004.6 - 11.0 - - - - - - -
01/05:30am 9.5 WSW 29 40 1004.2 - 11.0 - - - - - - -
01/05:00am 8.9 WSW 29 40 1003.7 - 11.0 - - - - - - -
01/04:40am 7.0 WSW 34 46 1003.6 - 11.0 - - - - - - -
01/04:38am 6.9 WSW 38 46 1003.3 - 11.0 - - - - - - -
01/04:37am 8.3 W 26 46 1003.4 - 10.8 - - - - - - -
01/04:35am 9.2 W 23 35 1003.4 - 10.6 - - - - - - -
01/04:30am 8.8 W 21 27 1003.7 - 10.6 - - - - - - -
01/04:26am 8.2 W 20 23 1003.7 - 10.6 - - - - - - -
01/04:23am 8.3 W 30 40 1003.7 - 10.6 - - - - - - -
01/04:17am 9.3 WSW 34 40 1003.1 - 10.6 - - - - - - -
01/04:06am 8.8 W 20 32 1003.2 - 10.6 - - - - - - -
01/04:00am 7.6 W 18 24 1003.6 - 10.6 - - - - - - -
01/03:51am 6.5 WSW 21 31 1003.8 - 10.4 - - - - - - -
01/03:45am 5.5 WSW 24 30 1003.8 - 10.4 - - - - - - -
01/03:43am 5.6 WSW 35 46 1003.8 - 10.2 - - - - - - -
01/03:40am 7.5 WSW 38 46 1003.2 - 9.8 - - - - - - -
01/03:36am 9.3 W 27 44 1003.0 - 9.8 - - - - - - -
01/03:30am 9.7 W 22 30 1003.1 - 9.8 - - - - - - -
01/03:00am 8.4 W 19 26 1003.6 - 9.8 - - - - - - -
01/02:31am 7.8 W 24 37 1004.4 - 9.8 - - - - - - -
01/02:30am 7.7 W 24 32 1004.4 - 9.8 - - - - - - -
01/02:04am 8.2 W 26 36 1004.1 - 9.8 - - - - - - -
01/02:00am 9.1 W 27 34 1004.0 - 9.8 - - - - - - -
01/01:30am 7.6 W 29 39 1004.0 - 9.8 - - - - - - -
01/01:00am 8.8 W 32 44 1004.6 - 9.8 - - - - - - -
01/12:33am 9.0 W 30 41 1004.2 - 9.8 - - - - - - -
01/12:30am 9.0 W 32 42 1004.2 - 9.8 - - - - - - -
01/12:00am 9.3 W 28 39 1004.2 - 9.6 - - - - - - -
 
Date/Time
CST
Temp

°C
Wind Pressure Rain
since 9am
mm
Weather Cloud Vis
km
Sea
Height
m
Swell
Dir
 
Speed
knots
Gust
knots
hPa Trend Height
m
Period
s
Dir
31/11:30pm 9.7 W 26 36 1003.9 - 9.6 - - - - - - -
31/11:28pm 9.7 W 26 36 1004.0 - 9.6 - - - - - - -
31/11:00pm 9.7 W 25 31 1003.9 - 9.6 - - - - - - -
31/10:30pm 7.5 W 27 45 1004.3 - 9.4 - - - - - - -
31/10:01pm 10.1 W 24 36 1004.2 - 8.8 - - - - - - -
31/10:00pm 10.1 W 24 32 1004.2 - 8.8 - - - - - - -
31/09:49pm 9.9 W 19 30 1004.2 - 8.8 - - - - - - -
31/09:30pm 8.6 WNW 20 29 1004.6 - 8.8 - - - - - - -
31/09:00pm 9.2 W 25 36 1004.4 - 8.8 Recent precip. - - - - - -
31/08:30pm 8.1 W 23 35 1004.4 - 8.8 - - - - - - -
31/08:25pm 8.8 W 23 35 1004.1 - 8.8 - - - - - - -
31/08:00pm 8.8 W 23 31 1004.4 - 8.4 - - - - - - -
31/07:30pm 9.2 W 26 35 1003.9 - 8.4 - - - - - - -
31/07:00pm 8.6 WSW 28 39 1003.3 - 8.4 - - - - - - -
31/06:44pm 9.1 W 32 51 1002.8 - 8.4 - - - - - - -
31/06:33pm 9.8 W 29 40 1002.9 - 8.4 - - - - - - -
31/06:30pm 9.7 W 28 37 1003.1 - 8.4 - - - - - - -
31/06:00pm 10.0 W 28 40 1002.5 - 8.4 - - - - - - -
31/05:35pm 9.8 W 29 43 1002.1 - 8.4 - - - - - - -
31/05:30pm 10.0 W 28 37 1002.1 - 8.4 - - - - - - -
31/05:04pm 9.8 W 28 38 1001.4 - 8.4 - - - - - - -
31/05:00pm 9.8 W 27 37 1001.5 - 8.4 - - - - - - -
31/04:30pm 9.7 W 28 39 1001.0 - 8.2 - - - - - - -
31/04:00pm 8.7 W 26 40 1001.3 - 8.2 - - - - - - -
31/03:30pm 8.6 W 22 33 1001.0 - 8.0 - - - - - - -
31/03:15pm 8.2 WSW 28 39 1000.7 - 8.0 - - - - - - -
31/03:00pm 9.5 WSW 31 39 1000.0 - 7.6 Recent precip. - - - - - -
31/02:30pm 9.7 W 33 43 999.7 - 7.4 - - - - - - -
31/02:22pm 10.9 WNW 20 39 999.6 - 7.4 - - - - - - -
31/02:00pm 10.1 W 16 19 999.4 - 7.4 - - - - - - -
31/01:31pm 9.2 W 28 40 999.6 - 7.0 - - - - - - -
31/01:30pm 9.4 W 28 38 999.7 - 7.0 - - - - - - -
31/01:00pm 9.5 W 25 36 999.6 - 6.8 - - - - - - -
31/12:32pm 10.2 W 25 36 999.2 - 6.4 - - - - - - -
31/12:30pm 10.2 W 25 33 999.2 - 6.4 - - - - - - -
31/12:05pm 9.3 W 27 38 999.6 - 6.4 - - - - - - -
31/12:00pm 9.1 W 29 38 999.7 - 6.4 Rain - - - - - -
31/11:53am 9.4 WSW 26 36 999.6 - 6.2 - - - - - - -
31/11:30am 9.4 WSW 28 37 999.9 - 5.8 - - - - - - -
31/11:08am 9.9 W 27 38 999.0 - 5.2 - - - - - - -
31/11:00am 10.2 W 28 38 999.4 - 5.2 - - - - - - -
31/10:36am 10.8 WSW 28 41 998.3 - 5.2 - - - - - - -
31/10:30am 10.6 WSW 26 35 998.5 - 5.2 - - - - - - -
31/10:00am 10.7 W 27 38 998.3 - 5.0 - - - - - - -
31/09:50am 11.2 W 26 32 998.4 - 4.6 - - - - - - -
31/09:31am 10.8 WNW 25 36 998.5 - 3.8 - - - - - - -
31/09:30am 10.9 WNW 26 36 998.5 - 3.6 - - - - - - -
31/09:26am 10.8 WNW 28 36 998.5 - 3.4 - - - - - - -
31/09:17am 10.8 WNW 40 51 998.0 - 1.4 - - - - - - -
31/09:15am 14.3 NNW 33 44 996.1 - 0.0 - - - - - - -
31/09:00am 14.1 NNW 30 39 996.9 - 0.6 - - - - - - -
31/08:33am 13.9 NNW 27 37 997.6 - 0.6 - - - - - - -
31/08:30am 13.9 NNW 28 37 997.8 - 0.6 - - - - - - -
31/08:07am 13.8 NNW 27 38 998.0 - 0.6 - - - - - - -
31/08:00am 13.6 NNW 29 37 998.1 - 0.6 - - - - - - -
31/07:38am 13.8 NNW 27 38 998.5 - 0.6 - - - - - - -
31/07:30am 13.8 NNW 28 36 998.6 - 0.6 - - - - - - -
31/07:00am 13.6 NNW 29 42 999.0 - 0.6 - - - - - - -
31/06:56am 13.6 NNW 28 42 998.9 - 0.6 - - - - - - -
31/06:30am 13.4 NNW 27 35 999.2 - 0.6 - - - - - - -
31/06:00am 13.4 NNW 25 31 999.7 - 0.6 - - - - - - -
31/05:30am 13.4 NNW 23 35 1000.3 - 0.6 - - - - - - -
31/05:09am 13.6 NNW 27 37 1000.5 - 0.6 - - - - - - -
31/05:00am 13.6 NNW 25 33 1000.4 - 0.6 - - - - - - -
31/04:41am 13.9 NNW 25 36 1000.7 - 0.6 - - - - - - -
31/04:30am 13.8 NNW 25 32 1001.0 - 0.6 - - - - - - -
31/04:06am 13.7 NNW 21 32 1001.2 - 0.6 - - - - - - -
31/04:00am 13.8 NNW 21 30 1001.5 - 0.6 - - - - - - -
31/03:30am 13.8 NNW 21 28 1002.3 - 0.6 - - - - - - -
31/03:00am 14.1 NNW 22 30 1002.9 - 0.6 - - - - - - -
31/02:30am 13.8 NNW 22 30 1003.3 - 0.6 - - - - - - -
31/02:00am 13.9 NNW 22 29 1003.7 - 0.6 - - - - - - -
31/01:33am 14.2 NNW 24 35 1004.0 - 0.6 - - - - - - -
31/01:30am 14.2 NNW 24 34 1004.1 - 0.6 - - - - - - -
31/01:00am 14.0 NNW 23 31 1004.7 - 0.6 - - - - - - -
31/12:30am 14.2 NNW 23 31 1005.0 - 0.6 - - - - - - -
31/12:00am 14.1 NNW 22 29 1005.6 - 0.6 - - - - - - -
 
Date/Time
CST
Temp

°C
Wind Pressure Rain
since 9am
mm
Weather Cloud Vis
km
Sea
Height
m
Swell
Dir
 
Speed
knots
Gust
knots
hPa Trend Height
m
Period
s
Dir
30/11:30pm 14.5 NNW 24 33 1006.3 - 0.6 - - - - - - -
30/11:27pm 14.5 NNW 23 33 1006.3 - 0.6 - - - - - - -
30/11:00pm 14.0 N 23 30 1006.5 - 0.6 - - - - - - -
30/10:30pm 13.8 NNW 22 28 1007.2 - 0.6 - - - - - - -
30/10:00pm 13.6 NNW 19 24 1007.9 - 0.6 - - - - - - -
30/09:30pm 13.8 NNW 20 24 1008.4 - 0.6 - - - - - - -
30/09:00pm 13.5 NNW 18 24 1008.7 - 0.6 - - - - - - -
30/08:30pm 13.8 NNW 21 27 1009.3 - 0.6 - - - - - - -
30/08:00pm 13.9 NNW 18 26 1009.6 - 0.6 - - - - - - -
30/07:30pm 13.7 NNW 17 25 1009.7 - 0.6 - - - - - - -
30/07:00pm 13.9 NNW 19 26 1010.0 - 0.4 - - - - - - -
30/06:30pm 13.8 NNW 16 21 1010.2 - 0.4 - - - - - - -
30/06:00pm 14.0 NNW 18 25 1010.1 - 0.4 Recent precip. - - - - - -
30/05:30pm 13.6 NNW 16 22 1010.0 - 0.2 - - - - - - -
30/05:00pm 13.7 NW 13 18 1010.1 - 0.2 - - - - - - -
30/04:30pm 13.8 NNW 15 21 1010.1 - 0.0 - - - - - - -
30/04:15pm 14.6 NNW 16 26 1010.1 - 0.0 - - - - - - -
30/04:00pm 14.8 NW 14 19 1010.2 - 0.0 - - - - - - -
30/03:30pm 15.2 NW 15 19 1010.4 - 0.0 - - - - - - -
30/03:00pm 15.4 NW 16 22 1010.6 - 0.0 - - - - - - -
30/02:30pm 15.8 NW 17 22 1010.6 - 0.0 - - - - - - -
30/02:00pm 15.6 NW 16 23 1010.9 - 0.0 - - - - - - -
30/01:30pm 14.8 NW 16 23 1011.2 - 0.0 - - - - - - -
30/01:00pm 14.7 NNW 14 18 1011.6 - 0.0 - - - - - - -
30/12:30pm 16.0 NW 14 19 1012.0 - 0.0 - - - - - - -
30/12:00pm 16.4 NW 15 23 1012.5 - 0.0 - - - - - - -
30/11:30am 15.3 NW 15 21 1013.0 - 0.0 - - - - - - -
30/11:00am 15.9 NW 18 24 1013.0 - 0.0 - - - - - - -
30/10:30am 15.8 NW 15 21 1013.2 - 0.0 - - - - - - -
30/10:00am 15.4 WNW 15 23 1013.2 - 0.0 - - - - - - -

Other Formats:

Comma delimited format used in spreadsheet applications
http://www.bom.gov.au/fwo/IDS60701/IDS60701.94813.axf

JavaScript Object Notation format (JSON) in row-major order
http://www.bom.gov.au/fwo/IDS60701/IDS60701.94813.json